Terminal Aerodrome Forecast
Issued by NWS

Home | Current Version | Previous Version | Text Only | Print | Product List | Glossary Off
Versions: 1 2 3 4 5 6 7 8 9 10 11 12 13 14 15 16 17 18 19

000
FTUS43 KGRB 202300
TAFATW
TAF
KATW 202339Z 2100/2124 27006KT P6SM SCT040 BKN250
     FM210200 29005KT P6SM SCT050 BKN140
     FM210500 31006KT 6SM -SHRA BR SCT035 OVC070
      TEMPO 2105/2107 3SM TSRA OVC030CB
     FM210800 35009KT 6SM -SHRA BR SCT012 OVC020
      TEMPO 2109/2113 4SM SHRA BR BKN006 OVC012
     FM211400 36012G18KT P6SM BKN018
     FM211900 35012G18KT P6SM SCT030
     FM212300 36008KT P6SM SKC=

USA.gov is the U.S. government's official web portal to all federal, state and local government web resources and services.